Time;durP1;ratioP1;P1;durP2;ratioP2;P2;SDS_P1;SDS_P2;PMS_P1;PMS_P2;Temp;Humidity;BMP_temperature;BMP_pressure;BME280_temperature;BME280_humidity;BME280_pressure;Samples;Min_cycle;Max_cycle;Signal;HPM_P1;HPM_P2
2022/11/08 00:03:04;;;;;;;4.57;2.70;;;18.60;69.30;;;;;;6226027;23;20152;-84
2022/11/08 00:16:21;;;;;;;4.63;2.35;;;18.50;69.40;;;;;;6225717;23;20615;-84
2022/11/08 00:18:47;;;;;;;3.47;2.38;;;18.50;69.40;;;;;;6165491;23;20179;-84
2022/11/08 00:21:13;;;;;;;3.60;2.55;;;18.60;69.40;;;;;;6166786;23;20207;-84
2022/11/08 00:23:47;;;;;;;3.03;2.30;;;18.50;69.20;;;;;;6166551;23;20155;-84
2022/11/08 00:26:14;;;;;;;3.70;2.50;;;18.60;69.30;;;;;;6131038;23;20197;-84
2022/11/08 00:28:41;;;;;;;4.28;2.53;;;18.60;69.30;;;;;;6188541;22;20164;-84
2022/11/08 00:31:07;;;;;;;4.32;2.58;;;18.60;69.40;;;;;;6235919;22;20169;-84
2022/11/08 00:33:36;;;;;;;5.95;2.40;;;18.50;69.30;;;;;;6235048;22;20547;-84
2022/11/08 00:36:02;;;;;;;3.67;2.40;;;18.60;69.40;;;;;;6261891;22;20184;-84
2022/11/08 00:38:34;;;;;;;4.28;2.70;;;18.60;69.40;;;;;;6261369;22;20663;-83
2022/11/08 00:41:00;;;;;;;3.67;2.50;;;18.50;69.50;;;;;;6150226;23;20169;-84
2022/11/08 00:43:26;;;;;;;4.50;2.60;;;18.50;69.40;;;;;;6200384;23;20153;-84
2022/11/08 00:45:52;;;;;;;4.38;2.65;;;18.50;69.50;;;;;;6201011;23;20162;-84
2022/11/08 00:48:18;;;;;;;3.28;2.40;;;18.50;69.40;;;;;;6200043;23;20261;-84
2022/11/08 00:50:44;;;;;;;3.28;2.50;;;18.50;69.40;;;;;;6231201;23;20180;-84
2022/11/08 00:53:14;;;;;;;7.30;2.90;;;18.50;69.60;;;;;;6207042;23;20175;-84
2022/11/08 00:55:46;;;;;;;4.15;2.60;;;18.50;69.60;;;;;;6182670;23;20153;-84
2022/11/08 00:58:12;;;;;;;4.13;2.60;;;18.50;69.30;;;;;;6232220;23;20152;-83
2022/11/08 01:00:43;;;;;;;5.32;2.53;;;18.50;69.30;;;;;;6206763;23;20184;-84
2022/11/08 01:03:24;;;;;;;2.95;2.50;;;18.50;69.40;;;;;;6182194;23;20155;-84
2022/11/08 01:05:55;;;;;;;4.65;2.53;;;18.50;69.70;;;;;;6233037;23;20184;-83
2022/11/08 01:08:21;;;;;;;4.15;2.60;;;18.50;69.40;;;;;;6205664;23;20157;-84
2022/11/08 01:10:49;;;;;;;3.55;2.40;;;18.50;69.40;;;;;;6231313;22;20180;-83
2022/11/08 01:13:27;;;;;;;4.80;2.58;;;18.50;69.40;;;;;;6236530;22;20149;-84
2022/11/08 01:15:57;;;;;;;3.90;2.20;;;18.50;69.70;;;;;;6211506;22;20684;-84
2022/11/08 01:18:27;;;;;;;3.40;2.40;;;18.50;69.60;;;;;;6187873;22;20152;-84
2022/11/08 01:20:53;;;;;;;2.95;2.20;;;18.50;69.40;;;;;;6161939;22;20550;-84
2022/11/08 01:23:19;;;;;;;4.10;2.63;;;18.50;69.80;;;;;;6262463;22;20243;-84
2022/11/08 01:25:46;;;;;;;3.72;2.53;;;18.50;69.40;;;;;;6236784;22;20168;-84
2022/11/08 01:28:12;;;;;;;4.22;2.40;;;18.50;69.60;;;;;;6237948;22;20183;-84
2022/11/08 01:30:39;;;;;;;2.80;2.45;;;18.50;69.70;;;;;;6171778;23;20190;-84
2022/11/08 01:33:10;;;;;;;3.60;2.67;;;18.50;69.60;;;;;;6171473;23;20155;-84
2022/11/08 01:35:40;;;;;;;3.88;2.42;;;18.50;69.60;;;;;;6098985;23;20146;-84
2022/11/08 01:38:06;;;;;;;4.68;2.50;;;18.50;69.60;;;;;;6122166;23;20230;-84
2022/11/08 01:40:41;;;;;;;3.40;2.20;;;18.50;69.60;;;;;;6196509;23;20238;-84
2022/11/08 01:43:41;;;;;;;4.00;2.55;;;18.40;69.40;;;;;;6171188;23;20156;-84
2022/11/08 01:46:28;;;;;;;4.40;2.47;;;18.50;69.40;;;;;;6196980;23;20674;-84
2022/11/08 01:49:01;;;;;;;3.55;2.60;;;18.40;69.70;;;;;;6152449;23;20237;-84
2022/11/08 01:51:35;;;;;;;4.38;2.50;;;18.50;69.70;;;;;;6098746;23;20186;-83
2022/11/08 01:54:06;;;;;;;2.90;2.33;;;18.40;69.60;;;;;;6123231;23;20155;-83
2022/11/08 01:56:36;;;;;;;3.63;2.10;;;18.50;69.40;;;;;;6122460;23;20197;-84
2022/11/08 01:59:09;;;;;;;3.13;2.25;;;18.50;69.50;;;;;;6074862;23;20181;-84
2022/11/08 02:01:40;;;;;;;4.60;2.42;;;18.50;69.70;;;;;;6166008;22;20283;-84
2022/11/08 02:04:11;;;;;;;3.22;2.30;;;18.40;69.60;;;;;;6187907;22;20152;-84
2022/11/08 02:06:42;;;;;;;4.13;2.30;;;18.50;69.30;;;;;;6187090;22;20171;-84
2022/11/08 02:09:13;;;;;;;3.75;2.20;;;18.40;69.70;;;;;;6185944;22;20153;-84
2022/11/08 02:11:42;;;;;;;4.13;2.70;;;18.40;69.80;;;;;;6203680;22;20676;-84
2022/11/08 02:14:13;;;;;;;2.53;2.30;;;18.40;69.80;;;;;;6242767;22;20576;-84
2022/11/08 02:16:43;;;;;;;4.38;2.50;;;18.40;69.60;;;;;;6267579;22;20163;-84
2022/11/08 02:19:18;;;;;;;3.17;2.40;;;18.40;69.70;;;;;;6241931;22;20152;-84
2022/11/08 02:21:54;;;;;;;4.18;2.45;;;18.50;69.80;;;;;;6219483;22;20163;-83
2022/11/08 02:24:27;;;;;;;3.30;2.47;;;18.50;69.70;;;;;;6243999;22;20227;-84
2022/11/08 02:26:53;;;;;;;2.40;2.20;;;18.40;69.60;;;;;;6241736;22;20210;-84
2022/11/08 02:29:36;;;;;;;3.55;2.55;;;18.50;69.80;;;;;;6267384;22;20148;-83
2022/11/08 02:32:07;;;;;;;4.03;2.50;;;18.40;69.70;;;;;;6267632;22;20646;-83
2022/11/08 02:34:44;;;;;;;3.85;2.53;;;18.40;69.60;;;;;;6268260;22;20170;-84
2022/11/08 02:37:14;;;;;;;3.25;2.40;;;18.40;69.60;;;;;;6244233;22;20147;-84
2022/11/08 02:39:41;;;;;;;3.55;2.30;;;18.40;69.80;;;;;;6242060;22;20211;-83
2022/11/08 02:42:17;;;;;;;3.10;2.50;;;18.40;69.60;;;;;;6256888;23;20205;-84
2022/11/08 02:44:48;;;;;;;4.20;2.30;;;18.40;69.60;;;;;;6231899;23;20210;-84
2022/11/08 02:47:23;;;;;;;3.05;2.00;;;18.40;69.50;;;;;;6230736;23;20149;-84
2022/11/08 02:49:53;;;;;;;3.00;2.53;;;18.40;69.90;;;;;;6231110;23;20268;-84
2022/11/08 02:52:25;;;;;;;4.57;2.40;;;18.40;69.60;;;;;;6230713;23;20153;-84
2022/11/08 02:54:55;;;;;;;3.53;2.50;;;18.40;69.60;;;;;;6231280;23;20149;-84
2022/11/08 02:57:27;;;;;;;3.50;2.53;;;18.50;69.80;;;;;;6231215;23;20157;-84
2022/11/08 02:59:57;;;;;;;3.75;2.22;;;18.40;70.00;;;;;;6230875;23;20153;-84
2022/11/08 03:02:25;;;;;;;3.33;2.40;;;18.40;69.80;;;;;;6230070;23;20153;-84
2022/11/08 03:04:52;;;;;;;2.95;2.20;;;18.40;69.70;;;;;;6230767;23;20161;-84
2022/11/08 03:07:18;;;;;;;4.13;2.55;;;18.40;69.80;;;;;;6231162;23;20640;-84
2022/11/08 03:09:45;;;;;;;3.42;2.20;;;18.50;70.00;;;;;;6230370;23;20153;-84
2022/11/08 03:12:12;;;;;;;3.70;2.40;;;18.40;69.80;;;;;;6214155;22;20149;-84
2022/11/08 03:14:42;;;;;;;3.20;2.50;;;18.40;69.60;;;;;;6292085;22;20152;-84
2022/11/08 03:17:15;;;;;;;3.38;2.33;;;18.40;69.80;;;;;;6266769;22;20230;-84
2022/11/08 03:19:45;;;;;;;2.88;2.13;;;18.40;69.80;;;;;;6241568;22;20155;-84
2022/11/08 03:22:15;;;;;;;2.40;2.20;;;18.40;69.50;;;;;;6266699;22;20148;-84
2022/11/08 03:24:48;;;;;;;3.47;2.40;;;18.40;69.40;;;;;;6229989;23;20624;-84
2022/11/08 03:27:21;;;;;;;3.70;2.25;;;18.40;69.80;;;;;;6135784;23;20255;-84
2022/11/08 03:29:52;;;;;;;3.60;2.50;;;18.40;69.80;;;;;;6152910;23;20199;-84
2022/11/08 03:32:24;;;;;;;3.47;2.25;;;18.40;69.70;;;;;;6151760;23;20245;-84
2022/11/08 03:34:50;;;;;;;2.90;2.42;;;18.40;69.70;;;;;;6150522;23;20150;-84
2022/11/08 03:37:16;;;;;;;3.10;2.30;;;18.40;69.70;;;;;;6200599;23;20166;-84
2022/11/08 03:39:43;;;;;;;5.07;2.22;;;18.40;70.60;;;;;;6200210;23;20146;-84
2022/11/08 03:42:12;;;;;;;3.78;2.70;;;18.40;69.90;;;;;;6177348;23;20241;-84
2022/11/08 03:44:38;;;;;;;3.83;2.70;;;18.40;70.10;;;;;;6126410;23;20173;-83
2022/11/08 03:47:04;;;;;;;4.47;2.70;;;18.40;69.90;;;;;;6176071;23;20146;-84
2022/11/08 03:49:33;;;;;;;4.70;2.38;;;18.40;70.00;;;;;;6176740;23;20161;-84
2022/11/08 03:51:59;;;;;;;3.53;2.30;;;18.40;69.90;;;;;;6175795;23;20176;-84
2022/11/08 03:54:25;;;;;;;4.18;2.47;;;18.40;69.90;;;;;;6175760;23;20150;-84
2022/11/08 03:57:05;;;;;;;3.78;2.40;;;18.40;70.00;;;;;;6267239;22;20211;-84
2022/11/08 03:59:31;;;;;;;2.78;2.28;;;18.40;70.00;;;;;;6215729;22;20155;-84
2022/11/08 04:02:01;;;;;;;3.28;2.25;;;18.40;69.90;;;;;;6267142;22;20598;-84
2022/11/08 04:04:27;;;;;;;3.72;2.63;;;18.40;70.00;;;;;;6240864;22;20152;-84
2022/11/08 04:06:53;;;;;;;2.88;2.30;;;18.40;69.90;;;;;;6266960;22;20152;-84
2022/11/08 04:09:23;;;;;;;3.20;2.10;;;18.40;70.00;;;;;;6265903;22;20152;-84
2022/11/08 04:23:10;;;;;;;3.45;2.17;;;18.30;69.90;;;;;;6252407;22;20591;-84
2022/11/08 04:25:36;;;;;;;3.78;2.20;;;18.30;69.80;;;;;;6241394;22;20163;-84
2022/11/08 04:28:02;;;;;;;2.95;2.30;;;18.30;70.10;;;;;;6243339;22;20167;-83
2022/11/08 04:30:28;;;;;;;2.60;2.03;;;18.30;69.90;;;;;;6294169;22;20162;-84
2022/11/08 04:32:54;;;;;;;3.20;2.40;;;18.30;69.70;;;;;;6268410;22;20171;-83
2022/11/08 04:35:25;;;;;;;2.65;2.20;;;18.40;70.00;;;;;;6268751;22;20151;-84
2022/11/08 04:37:57;;;;;;;3.85;2.70;;;18.40;69.70;;;;;;6216663;22;20148;-84
2022/11/08 04:40:23;;;;;;;3.15;2.25;;;18.30;69.90;;;;;;6194160;22;20239;-84
2022/11/08 04:42:54;;;;;;;3.60;2.50;;;18.30;69.80;;;;;;6294160;22;20132;-84
2022/11/08 04:45:25;;;;;;;3.50;2.05;;;18.40;69.70;;;;;;6217025;22;20627;-83
2022/11/08 04:47:57;;;;;;;4.22;2.33;;;18.30;69.80;;;;;;6193441;22;20583;-83
2022/11/08 04:50:28;;;;;;;3.20;2.20;;;18.30;69.90;;;;;;6193668;22;20243;-84
2022/11/08 04:53:01;;;;;;;3.33;2.53;;;18.40;69.70;;;;;;6217210;22;20148;-83
2022/11/08 04:55:35;;;;;;;2.67;2.38;;;18.30;69.80;;;;;;6193937;22;20163;-83
2022/11/08 04:58:04;;;;;;;4.97;2.53;;;18.40;69.90;;;;;;6243358;22;20159;-84
2022/11/08 05:00:36;;;;;;;3.78;2.42;;;18.40;69.80;;;;;;6269126;22;20152;-84
2022/11/08 05:03:07;;;;;;;3.42;2.40;;;18.40;69.80;;;;;;6217678;22;20152;-83
2022/11/08 05:05:36;;;;;;;4.20;2.45;;;18.30;69.80;;;;;;6241854;22;20148;-83
2022/11/08 05:08:06;;;;;;;3.88;2.50;;;18.40;69.80;;;;;;6293463;22;20211;-84
2022/11/08 05:10:36;;;;;;;2.83;2.40;;;18.30;69.40;;;;;;6217176;22;20617;-84
2022/11/08 05:13:02;;;;;;;3.35;2.40;;;18.40;69.90;;;;;;6216833;22;20154;-83
2022/11/08 05:15:28;;;;;;;2.55;1.92;;;18.40;69.90;;;;;;6294393;22;20124;-84
2022/11/08 05:17:58;;;;;;;3.05;2.45;;;18.40;69.70;;;;;;6267863;22;20141;-84
2022/11/08 05:23:22;;;;;;;3.35;2.30;;;18.40;69.70;;;;;;6251022;22;20148;-84
2022/11/08 05:25:48;;;;;;;2.75;2.28;;;18.30;69.60;;;;;;6220921;22;20609;-83
2022/11/08 05:28:17;;;;;;;3.33;2.47;;;18.30;69.70;;;;;;6243711;22;20301;-83
2022/11/08 05:30:54;;;;;;;3.80;2.33;;;18.40;69.60;;;;;;6293396;22;20239;-83
2022/11/08 05:33:20;;;;;;;2.42;2.05;;;18.40;69.60;;;;;;6220424;22;20233;-84
2022/11/08 05:35:46;;;;;;;3.83;2.20;;;18.30;69.70;;;;;;6268844;22;20195;-84
2022/11/08 05:38:16;;;;;;;5.97;2.30;;;18.30;69.50;;;;;;6293880;22;20202;-84
2022/11/08 05:40:53;;;;;;;3.40;2.30;;;18.40;69.90;;;;;;6216436;22;20227;-84
2022/11/08 05:43:24;;;;;;;2.53;2.00;;;18.30;69.60;;;;;;6243094;22;20155;-84
2022/11/08 05:45:57;;;;;;;2.72;2.17;;;18.40;69.60;;;;;;6296786;22;20152;-84
2022/11/08 05:48:23;;;;;;;3.65;2.20;;;18.30;69.60;;;;;;6270663;22;20140;-84
2022/11/08 05:50:53;;;;;;;3.78;2.53;;;18.40;70.00;;;;;;6270306;22;20175;-84
2022/11/08 05:53:23;;;;;;;4.50;2.10;;;18.30;70.00;;;;;;6219271;22;20595;-84
2022/11/08 05:56:00;;;;;;;3.70;2.28;;;18.30;69.40;;;;;;6217910;22;20155;-84
2022/11/08 05:58:26;;;;;;;2.40;1.90;;;18.30;69.20;;;;;;6194042;22;20159;-84
2022/11/08 06:01:00;;;;;;;4.18;2.20;;;18.30;69.00;;;;;;6202539;23;20158;-84
2022/11/08 06:03:26;;;;;;;3.88;2.10;;;18.30;69.00;;;;;;6201835;23;20233;-84
2022/11/08 06:05:53;;;;;;;3.22;2.22;;;18.30;69.60;;;;;;6177073;23;20161;-84
2022/11/08 06:08:19;;;;;;;2.78;2.00;;;18.30;68.90;;;;;;6202136;23;20142;-84
2022/11/08 06:10:51;;;;;;;2.17;1.92;;;18.30;69.40;;;;;;6178207;23;20204;-85
2022/11/08 06:13:22;;;;;;;3.28;2.22;;;18.30;69.20;;;;;;6202818;23;20202;-84
2022/11/08 06:15:49;;;;;;;2.35;1.83;;;18.30;69.20;;;;;;6103991;23;20153;-84
2022/11/08 06:18:19;;;;;;;2.60;1.85;;;18.30;69.20;;;;;;6178528;23;20145;-85
2022/11/08 06:20:48;;;;;;;3.22;2.00;;;18.40;68.90;;;;;;6128247;23;20154;-84
2022/11/08 06:23:16;;;;;;;3.47;2.13;;;18.40;68.90;;;;;;6128453;23;20154;-84
2022/11/08 06:25:42;;;;;;;2.30;2.10;;;18.40;69.00;;;;;;6202951;23;20154;-85
2022/11/08 06:28:09;;;;;;;2.92;2.15;;;18.40;68.90;;;;;;6178709;23;20455;-84
2022/11/08 06:30:35;;;;;;;2.72;1.90;;;18.50;69.30;;;;;;6177442;23;20179;-84
2022/11/08 06:33:01;;;;;;;2.38;1.90;;;18.40;68.90;;;;;;6269213;22;20152;-84
2022/11/08 06:35:27;;;;;;;3.38;2.03;;;18.50;69.00;;;;;;6267428;22;20142;-83
2022/11/08 06:37:53;;;;;;;2.28;1.90;;;18.50;68.80;;;;;;6240489;22;20638;-84
2022/11/08 06:40:19;;;;;;;2.50;2.00;;;18.40;68.90;;;;;;6267319;22;20147;-84
2022/11/08 06:42:48;;;;;;;3.67;1.75;;;18.50;69.00;;;;;;6268093;22;20132;-84
2022/11/08 06:45:14;;;;;;;2.50;1.83;;;18.50;68.90;;;;;;6242630;22;20140;-85
2022/11/08 06:47:40;;;;;;;1.92;1.63;;;18.50;68.90;;;;;;6293136;22;20593;-83
2022/11/08 06:50:08;;;;;;;2.72;2.20;;;18.50;68.50;;;;;;6292970;22;20175;-84
2022/11/08 06:52:33;;;;;;;2.05;1.85;;;18.50;68.60;;;;;;6267970;22;20223;-84
2022/11/08 06:55:00;;;;;;;2.30;1.85;;;18.50;68.70;;;;;;6243956;22;20143;-85
2022/11/08 06:57:26;;;;;;;2.67;2.00;;;18.50;68.90;;;;;;6244197;22;20531;-84
2022/11/08 06:59:53;;;;;;;2.30;2.00;;;18.50;68.70;;;;;;6269740;22;20120;-84
2022/11/08 07:02:23;;;;;;;2.13;1.75;;;18.50;68.60;;;;;;6242618;22;20136;-84
2022/11/08 07:04:50;;;;;;;2.70;1.98;;;18.50;68.50;;;;;;6217028;22;20211;-84
2022/11/08 07:07:17;;;;;;;1.90;1.70;;;18.50;69.00;;;;;;6241101;22;20152;-83
2022/11/08 07:09:47;;;;;;;2.40;1.92;;;18.50;68.40;;;;;;6240238;22;20174;-84
2022/11/08 07:12:25;;;;;;;4.03;2.10;;;18.50;68.50;;;;;;6217349;22;20155;-83
2022/11/08 07:14:52;;;;;;;2.55;1.80;;;18.50;68.40;;;;;;6218084;22;20238;-82
2022/11/08 07:17:26;;;;;;;3.92;2.00;;;18.50;68.60;;;;;;6269495;22;20171;-82
2022/11/08 07:19:53;;;;;;;2.17;1.80;;;18.50;68.60;;;;;;6218388;22;20147;-83
2022/11/08 07:22:23;;;;;;;3.03;2.05;;;18.50;68.30;;;;;;6268638;22;20172;-83
2022/11/08 07:24:55;;;;;;;2.53;1.95;;;18.50;68.40;;;;;;6244058;22;20159;-83
2022/11/08 07:27:21;;;;;;;3.15;1.90;;;18.50;68.40;;;;;;6218824;22;20531;-83
2022/11/08 07:29:47;;;;;;;2.10;1.67;;;18.50;68.50;;;;;;6267239;22;20136;-83
2022/11/08 07:32:16;;;;;;;2.75;1.85;;;18.50;68.10;;;;;;6263423;22;20228;-84
2022/11/08 07:34:46;;;;;;;4.13;1.80;;;18.50;68.70;;;;;;6280943;22;20136;-84
2022/11/08 07:37:17;;;;;;;2.35;2.03;;;18.50;68.10;;;;;;6254950;22;20219;-84
2022/11/08 07:39:47;;;;;;;2.35;1.88;;;18.50;68.60;;;;;;6229272;22;20657;-84
2022/11/08 07:42:15;;;;;;;2.63;1.88;;;18.50;68.50;;;;;;6234337;22;20196;-83
2022/11/08 07:44:42;;;;;;;2.88;1.92;;;18.50;68.40;;;;;;6315214;22;20580;-83
2022/11/08 07:47:08;;;;;;;2.30;2.00;;;18.60;68.20;;;;;;6261619;22;20193;-84
2022/11/08 07:49:35;;;;;;;2.13;1.90;;;18.50;68.80;;;;;;6287557;22;20125;-84
2022/11/08 07:52:01;;;;;;;2.30;1.90;;;18.60;68.50;;;;;;6263516;22;20643;-84
2022/11/08 07:54:31;;;;;;;3.05;1.98;;;18.60;68.70;;;;;;6260204;22;20227;-84
2022/11/08 07:56:58;;;;;;;2.92;1.67;;;18.50;68.70;;;;;;6234275;22;20238;-84
2022/11/08 07:59:27;;;;;;;3.17;1.77;;;18.60;68.40;;;;;;6259122;22;20483;-83
2022/11/08 08:02:03;;;;;;;2.83;2.17;;;18.60;68.40;;;;;;6261050;22;20179;-84
2022/11/08 08:04:32;;;;;;;2.65;1.95;;;18.50;68.10;;;;;;6236389;22;20486;-84
2022/11/08 08:07:08;;;;;;;2.92;1.95;;;18.50;68.00;;;;;;6237159;22;20155;-83
2022/11/08 08:09:45;;;;;;;2.65;1.80;;;18.60;68.10;;;;;;6238466;22;20162;-83
2022/11/08 08:12:14;;;;;;;2.92;1.80;;;18.60;67.90;;;;;;6188480;22;20208;-83
2022/11/08 08:14:43;;;;;;;1.75;1.63;;;18.60;67.80;;;;;;6236777;22;20148;-83
2022/11/08 08:17:15;;;;;;;2.55;1.80;;;18.60;67.90;;;;;;6237465;22;20622;-83
2022/11/08 08:19:46;;;;;;;1.92;1.73;;;18.60;67.80;;;;;;6262282;22;20159;-83
2022/11/08 08:22:17;;;;;;;2.03;1.77;;;18.60;68.40;;;;;;6236930;22;20182;-83
2022/11/08 08:24:48;;;;;;;1.88;1.65;;;18.60;67.90;;;;;;6212801;22;20148;-81
2022/11/08 08:27:19;;;;;;;3.00;1.90;;;18.70;67.80;;;;;;6205909;22;20206;-82
2022/11/08 08:29:52;;;;;;;1.85;1.73;;;18.70;68.30;;;;;;6238889;22;20144;-83
2022/11/08 08:32:24;;;;;;;4.70;1.80;;;18.70;67.90;;;;;;6188485;22;20182;-83
2022/11/08 08:34:56;;;;;;;2.50;1.80;;;18.60;68.10;;;;;;6236546;22;20158;-83
2022/11/08 08:37:24;;;;;;;2.30;1.60;;;18.60;68.10;;;;;;6238790;22;20148;-83
2022/11/08 08:39:52;;;;;;;1.48;1.38;;;18.60;68.20;;;;;;6214124;22;20175;-83
2022/11/08 08:42:27;;;;;;;3.42;1.58;;;18.60;67.90;;;;;;6238871;22;20155;-83
2022/11/08 08:44:55;;;;;;;2.55;1.60;;;18.60;68.10;;;;;;6216906;22;20151;-82
2022/11/08 08:47:23;;;;;;;2.47;1.73;;;18.60;68.00;;;;;;6185146;22;20242;-82
2022/11/08 08:49:53;;;;;;;1.92;1.73;;;18.70;68.10;;;;;;6238841;22;20242;-83
2022/11/08 08:52:22;;;;;;;2.20;1.60;;;18.70;67.80;;;;;;6188940;22;20148;-83
2022/11/08 08:54:52;;;;;;;3.00;1.80;;;18.70;67.80;;;;;;6187656;22;20238;-83
2022/11/08 08:57:25;;;;;;;2.10;1.65;;;18.70;67.80;;;;;;6236672;22;20174;-83
2022/11/08 08:59:52;;;;;;;2.88;1.58;;;18.70;67.20;;;;;;6236872;22;20540;-84
2022/11/08 09:02:19;;;;;;;2.13;1.73;;;18.70;67.40;;;;;;6212192;22;20151;-83
2022/11/08 09:04:49;;;;;;;3.55;1.85;;;18.70;67.80;;;;;;6211694;22;20206;-83
2022/11/08 09:07:21;;;;;;;2.67;1.50;;;18.70;67.40;;;;;;6238214;22;20235;-83
2022/11/08 09:09:48;;;;;;;1.80;1.60;;;18.70;67.90;;;;;;6210654;22;20144;-83
2022/11/08 09:12:15;;;;;;;2.47;1.80;;;18.70;67.50;;;;;;6233907;22;20148;-83
2022/11/08 09:14:42;;;;;;;2.50;1.60;;;18.70;67.70;;;;;;6210348;22;20183;-83
2022/11/08 09:17:09;;;;;;;3.25;1.65;;;18.70;67.00;;;;;;6209748;22;20148;-83
2022/11/08 09:19:36;;;;;;;2.42;1.75;;;18.80;67.00;;;;;;6209845;22;20226;-83
2022/11/08 09:22:06;;;;;;;3.20;1.67;;;18.80;67.00;;;;;;6209939;22;20171;-83
2022/11/08 09:24:34;;;;;;;3.15;1.40;;;18.80;66.90;;;;;;6236808;22;20649;-84
2022/11/08 09:27:02;;;;;;;3.55;1.70;;;18.80;66.50;;;;;;6236202;22;20188;-84
2022/11/08 09:29:30;;;;;;;2.30;1.70;;;18.80;66.50;;;;;;6289136;22;20147;-83
2022/11/08 09:32:01;;;;;;;2.88;1.73;;;18.90;66.70;;;;;;6287759;22;20164;-84
2022/11/08 09:34:27;;;;;;;4.03;1.80;;;18.90;66.50;;;;;;6183247;22;20555;-83
2022/11/08 09:36:57;;;;;;;3.20;1.70;;;18.80;67.20;;;;;;6257879;22;20219;-84
2022/11/08 09:39:23;;;;;;;5.22;1.90;;;18.80;66.90;;;;;;6230986;22;20179;-84
2022/11/08 09:42:21;;;;;;;2.90;1.75;;;18.80;67.20;;;;;;6282812;22;20555;-84
2022/11/08 09:45:21;;;;;;;3.85;1.50;;;18.80;67.10;;;;;;6311096;22;20159;-83
2022/11/08 09:47:48;;;;;;;2.40;1.50;;;18.80;67.20;;;;;;6281419;22;20140;-84
2022/11/08 09:50:40;;;;;;;2.88;1.80;;;18.80;67.30;;;;;;6281450;22;20209;-84
2022/11/08 09:53:25;;;;;;;7.65;2.00;;;18.80;67.20;;;;;;6283691;22;20156;-83
2022/11/08 09:56:00;;;;;;;4.18;1.88;;;18.90;67.60;;;;;;6258407;22;20193;-84
2022/11/08 09:58:47;;;;;;;5.63;1.88;;;18.80;67.50;;;;;;6208960;22;20147;-84
2022/11/08 10:01:13;;;;;;;3.97;1.92;;;18.80;67.70;;;;;;6312002;22;20155;-84
2022/11/08 10:03:40;;;;;;;3.20;1.75;;;18.80;67.40;;;;;;6258135;22;20597;-83
2022/11/08 10:06:18;;;;;;;6.35;1.98;;;18.80;67.10;;;;;;6259504;22;20140;-82
2022/11/08 10:08:49;;;;;;;2.95;1.80;;;18.80;67.50;;;;;;6259835;22;20140;-83
2022/11/08 10:11:37;;;;;;;3.78;1.88;;;18.90;67.60;;;;;;6258661;22;20164;-83
2022/11/08 10:14:20;;;;;;;3.40;1.80;;;18.90;67.60;;;;;;6282989;22;20175;-83
2022/11/08 10:16:53;;;;;;;6.07;1.90;;;18.90;67.80;;;;;;6258572;22;20136;-84
2022/11/08 10:19:34;;;;;;;4.15;1.65;;;18.90;67.60;;;;;;6258561;22;20132;-84
2022/11/08 10:22:29;;;;;;;2.50;1.70;;;18.90;67.60;;;;;;6255845;22;20194;-84
2022/11/08 10:24:59;;;;;;;3.45;1.70;;;18.90;67.80;;;;;;6255905;22;20609;-83
2022/11/08 10:27:32;;;;;;;5.88;1.90;;;18.90;67.60;;;;;;6257103;22;20638;-83
2022/11/08 10:30:01;;;;;;;2.35;1.40;;;19.00;67.70;;;;;;6282423;22;20166;-83
2022/11/08 10:32:27;;;;;;;5.40;1.60;;;19.00;67.60;;;;;;6231625;22;20147;-83
2022/11/08 10:34:56;;;;;;;2.40;1.80;;;19.00;67.80;;;;;;6256882;22;20457;-83
2022/11/08 10:37:24;;;;;;;2.03;1.70;;;18.90;67.70;;;;;;6234475;22;20475;-84
2022/11/08 10:39:55;;;;;;;3.97;1.48;;;19.00;67.60;;;;;;6232265;22;20181;-83
2022/11/08 10:42:44;;;;;;;3.00;1.88;;;19.00;66.90;;;;;;6233163;22;20132;-84
2022/11/08 10:45:14;;;;;;;4.15;1.90;;;19.00;67.00;;;;;;6233578;22;20641;-83
2022/11/08 10:47:43;;;;;;;2.72;1.70;;;18.90;67.80;;;;;;6256831;22;20536;-83
2022/11/08 10:50:14;;;;;;;4.57;1.55;;;19.00;67.00;;;;;;6233489;22;20175;-81
2022/11/08 10:52:59;;;;;;;3.05;1.48;;;19.00;67.10;;;;;;6284722;22;20457;-83
2022/11/08 10:55:29;;;;;;;2.72;1.55;;;18.90;66.50;;;;;;6188971;22;20174;-82
2022/11/08 10:57:55;;;;;;;2.97;1.88;;;19.00;66.80;;;;;;6233240;22;20147;-83
2022/11/08 11:00:26;;;;;;;2.22;1.77;;;18.90;67.30;;;;;;6235384;22;20152;-83
2022/11/08 11:02:57;;;;;;;4.60;1.70;;;18.90;67.40;;;;;;6233846;22;20159;-83
2022/11/08 11:05:29;;;;;;;2.45;1.77;;;18.90;67.20;;;;;;6231480;22;20148;-83
2022/11/08 11:08:16;;;;;;;1.67;1.58;;;18.90;67.20;;;;;;6231195;22;20166;-83
2022/11/08 11:10:46;;;;;;;4.55;1.95;;;18.90;66.90;;;;;;6236982;22;20184;-84
2022/11/08 11:13:26;;;;;;;1.98;1.60;;;18.90;67.20;;;;;;6255857;22;20156;-83
2022/11/08 11:16:02;;;;;;;1.92;1.30;;;19.00;67.40;;;;;;6204732;22;20223;-83
2022/11/08 11:18:34;;;;;;;2.28;1.60;;;19.00;67.20;;;;;;6229827;22;20517;-83
2022/11/08 11:21:13;;;;;;;2.13;1.58;;;19.00;66.80;;;;;;6256124;22;20491;-83
2022/11/08 11:23:44;;;;;;;3.28;1.63;;;18.90;66.70;;;;;;6281878;22;20163;-84
2022/11/08 11:26:31;;;;;;;2.60;1.70;;;19.00;66.70;;;;;;6258449;22;20187;-84
2022/11/08 11:29:03;;;;;;;3.85;1.63;;;18.90;66.80;;;;;;6233362;22;20156;-83
2022/11/08 11:31:35;;;;;;;2.80;1.65;;;18.90;67.00;;;;;;6203683;22;20281;-84
2022/11/08 11:34:26;;;;;;;5.13;1.90;;;19.00;66.90;;;;;;6255568;22;20148;-83
2022/11/08 11:37:01;;;;;;;1.83;1.33;;;18.90;66.90;;;;;;6235743;22;20137;-84
2022/11/08 11:39:43;;;;;;;3.70;1.60;;;19.00;66.50;;;;;;6180382;22;20483;-83
2022/11/08 11:42:19;;;;;;;2.45;1.63;;;19.00;67.30;;;;;;6185717;22;20602;-83
2022/11/08 11:45:21;;;;;;;1.75;1.40;;;18.90;67.00;;;;;;6204686;22;20155;-84
2022/11/08 11:48:00;;;;;;;3.75;1.60;;;18.90;67.00;;;;;;6228627;22;20152;-85
2022/11/08 11:50:33;;;;;;;2.60;1.73;;;19.00;66.90;;;;;;6180679;22;20183;-84
2022/11/08 11:53:11;;;;;;;1.60;1.50;;;18.90;67.20;;;;;;6184870;22;20186;-83
2022/11/08 11:55:52;;;;;;;2.05;1.60;;;18.90;67.00;;;;;;6161612;22;20190;-84
2022/11/08 11:58:43;;;;;;;4.45;1.67;;;18.90;66.90;;;;;;6208619;22;20238;-84
2022/11/08 12:01:31;;;;;;;2.65;1.50;;;18.90;66.70;;;;;;6257565;22;20148;-85
2022/11/08 12:04:21;;;;;;;3.83;1.75;;;18.90;66.30;;;;;;6175022;23;20180;-84
2022/11/08 12:07:08;;;;;;;2.10;1.40;;;18.90;66.70;;;;;;6173028;23;20197;-83
2022/11/08 12:09:52;;;;;;;1.98;1.52;;;18.90;66.80;;;;;;6194339;23;20149;-84
2022/11/08 12:12:32;;;;;;;1.67;1.40;;;18.80;66.70;;;;;;6221066;23;20253;-85
2022/11/08 12:15:26;;;;;;;2.17;1.80;;;18.90;66.90;;;;;;6172104;23;20160;-84
2022/11/08 12:18:12;;;;;;;1.90;1.40;;;18.90;66.80;;;;;;6199776;23;20226;-85
2022/11/08 12:21:12;;;;;;;2.05;1.35;;;18.90;66.50;;;;;;6131518;23;20157;-84
2022/11/08 12:24:11;;;;;;;3.65;1.27;;;18.90;66.40;;;;;;6219127;23;20639;-85
2022/11/08 12:27:01;;;;;;;2.15;1.50;;;18.90;66.10;;;;;;6169745;23;20217;-84
2022/11/08 12:30:11;;;;;;;4.55;1.70;;;18.90;66.10;;;;;;6143472;23;20159;-85
2022/11/08 12:33:03;;;;;;;1.63;1.40;;;18.90;66.50;;;;;;6182847;23;20159;-85
2022/11/08 12:36:02;;;;;;;1.40;1.30;;;18.90;66.30;;;;;;6135620;23;20150;-85
2022/11/08 12:38:43;;;;;;;2.95;1.60;;;18.90;66.50;;;;;;6192156;23;20153;-85
2022/11/08 12:41:22;;;;;;;2.45;1.75;;;18.90;66.50;;;;;;6139665;23;20161;-85
2022/11/08 12:44:07;;;;;;;1.42;1.27;;;18.90;66.40;;;;;;6115489;23;20157;-86
2022/11/08 12:47:01;;;;;;;3.47;1.50;;;18.90;66.60;;;;;;6139292;23;20224;-85
2022/11/08 12:49:48;;;;;;;2.10;1.75;;;18.80;67.20;;;;;;6123760;23;20173;-85
2022/11/08 12:52:41;;;;;;;2.42;1.75;;;18.80;66.70;;;;;;6190292;23;20154;-85
2022/11/08 12:55:15;;;;;;;3.03;1.80;;;18.80;66.20;;;;;;6210309;23;20146;-83
2022/11/08 12:57:44;;;;;;;2.30;1.63;;;18.90;66.40;;;;;;6203920;22;20595;-85
2022/11/08 13:00:18;;;;;;;2.42;1.70;;;18.80;65.80;;;;;;6204463;22;20490;-84
2022/11/08 13:02:56;;;;;;;2.53;1.60;;;18.80;66.10;;;;;;6230594;22;20136;-85
2022/11/08 13:05:33;;;;;;;4.20;1.83;;;18.80;65.70;;;;;;6235645;22;20148;-85
2022/11/08 13:08:16;;;;;;;15.93;2.17;;;18.80;66.50;;;;;;6149966;23;20150;-84
2022/11/08 13:11:02;;;;;;;20.52;2.70;;;18.90;65.90;;;;;;6172997;23;20237;-84
2022/11/08 13:13:51;;;;;;;20.67;2.95;;;18.90;65.70;;;;;;6178739;23;20150;-84
2022/11/08 13:16:28;;;;;;;30.40;3.92;;;18.90;65.80;;;;;;6124118;23;20184;-84
2022/11/08 13:19:04;;;;;;;28.38;3.42;;;18.90;66.10;;;;;;6165473;23;20154;-85
2022/11/08 13:21:37;;;;;;;18.80;3.45;;;18.80;66.50;;;;;;6214720;23;20197;-86
2022/11/08 13:24:27;;;;;;;32.38;3.78;;;18.80;66.10;;;;;;6214056;23;20158;-84
2022/11/08 13:26:52;;;;;;;20.98;3.45;;;18.80;66.40;;;;;;6189809;23;20224;-85
2022/11/08 13:29:27;;;;;;;14.73;2.78;;;18.90;66.00;;;;;;6193380;23;20153;-84
2022/11/08 13:32:10;;;;;;;19.35;3.15;;;18.80;65.80;;;;;;6166306;23;20180;-85
2022/11/08 13:34:54;;;;;;;13.93;2.80;;;18.80;65.70;;;;;;6143117;23;20254;-84
2022/11/08 13:37:41;;;;;;;17.73;3.03;;;18.80;65.70;;;;;;6194611;23;20142;-86
2022/11/08 13:40:37;;;;;;;15.05;2.65;;;18.90;65.50;;;;;;6231444;22;20156;-84